createdAt,value
2019-01-15T00:05:14.774Z,5.1
2019-01-15T00:15:18.224Z,5
2019-01-15T00:25:21.658Z,4.9
2019-01-15T00:35:25.074Z,4.8
2019-01-15T00:45:28.505Z,5
2019-01-15T00:55:31.944Z,5.1
2019-01-15T01:05:35.390Z,5.1
2019-01-15T01:15:38.790Z,5.1
2019-01-15T01:25:42.199Z,5.2
2019-01-15T01:35:45.632Z,5.3
2019-01-15T01:45:49.039Z,5.3
2019-01-15T01:55:52.458Z,5.3
2019-01-15T02:05:55.874Z,5.3
2019-01-15T02:15:59.267Z,5.3
2019-01-15T02:26:02.676Z,5.2
2019-01-15T02:36:06.074Z,5.1
2019-01-15T02:46:09.543Z,4.9
2019-01-15T02:56:12.967Z,4.9
2019-01-15T03:06:16.369Z,4.8
2019-01-15T03:16:19.784Z,4.8
2019-01-15T03:26:23.210Z,4.8
2019-01-15T03:36:26.775Z,4.7
2019-01-15T03:46:30.164Z,4.7
2019-01-15T03:56:33.565Z,4.6
2019-01-15T04:06:36.982Z,4.8
2019-01-15T04:16:40.381Z,4.9
2019-01-15T04:26:43.819Z,4.9
2019-01-15T04:36:47.256Z,5.1
2019-01-15T04:46:50.655Z,5.1
2019-01-15T04:56:54.075Z,5.1
2019-01-15T05:06:57.535Z,5
2019-01-15T05:17:00.959Z,5
2019-01-15T05:27:04.521Z,5
2019-01-15T05:37:07.938Z,4.9
2019-01-15T05:47:11.356Z,4.9
2019-01-15T05:57:14.758Z,5
2019-01-15T06:07:18.213Z,4.9
2019-01-15T06:17:21.645Z,4.9
2019-01-15T06:27:25.086Z,4.8
2019-01-15T06:37:28.525Z,4.8
2019-01-15T06:47:31.965Z,4.9
2019-01-15T06:57:36.398Z,4.9
2019-01-15T07:07:39.814Z,4.9
2019-01-15T07:17:43.231Z,4.7
2019-01-15T07:27:46.626Z,5
2019-01-15T07:37:50.061Z,4.9
2019-01-15T07:47:53.504Z,4.8
2019-01-15T07:57:57.810Z,4.9
2019-01-15T08:08:01.360Z,5.1
2019-01-15T08:18:04.783Z,5
2019-01-15T08:28:08.199Z,5
2019-01-15T08:38:11.668Z,5.3
2019-01-15T08:48:15.110Z,5.3
2019-01-15T08:58:18.544Z,5.3
2019-01-15T09:08:21.973Z,5.3
2019-01-15T09:18:25.442Z,5.8
2019-01-15T09:28:28.857Z,7.3
2019-01-15T09:38:32.246Z,8.2
2019-01-15T09:48:35.671Z,8.4
2019-01-15T09:58:39.080Z,8.6
2019-01-15T10:08:42.512Z,9.2
2019-01-15T10:18:45.919Z,9.4
2019-01-15T10:28:49.335Z,9.5
2019-01-15T10:38:52.779Z,9.3
2019-01-15T10:48:56.198Z,9.3
2019-01-15T10:58:59.613Z,8.8
2019-01-15T11:09:03.087Z,8.5
2019-01-15T11:19:06.512Z,7.9
2019-01-15T11:29:09.946Z,7.9
2019-01-15T11:39:13.369Z,7.9
2019-01-15T11:49:16.765Z,7.9
2019-01-15T11:59:20.188Z,7.9
2019-01-15T12:09:23.577Z,7.7
2019-01-15T12:19:27.023Z,7.8
2019-01-15T12:29:30.475Z,8
2019-01-15T12:39:33.919Z,7.4
2019-01-15T12:49:37.338Z,7.9
2019-01-15T12:59:40.745Z,7.7
2019-01-15T13:09:44.169Z,7.7
2019-01-15T13:19:47.591Z,7.8
2019-01-15T13:29:51.986Z,7.5
2019-01-15T13:39:55.386Z,7.5
2019-01-15T13:49:59.787Z,7.9
2019-01-15T14:00:03.223Z,7.8
2019-01-15T14:10:06.638Z,7.7
2019-01-15T14:20:10.080Z,7.9
2019-01-15T14:30:13.472Z,7.8
2019-01-15T14:40:16.873Z,7.6
2019-01-15T14:50:20.270Z,7.4
2019-01-15T15:00:23.707Z,7.4
2019-01-15T15:10:27.139Z,7.6
2019-01-15T15:20:30.568Z,7.6
2019-01-15T15:30:34.008Z,7.5
2019-01-15T15:40:37.426Z,7.5
2019-01-15T15:50:40.858Z,7.5
2019-01-15T16:00:44.311Z,7.3
2019-01-15T16:10:47.719Z,7.3
2019-01-15T16:20:51.127Z,7.2
2019-01-15T16:30:54.553Z,7
2019-01-15T16:40:58.035Z,7.1
2019-01-15T16:51:01.484Z,6.9
2019-01-15T17:01:04.904Z,6.9
2019-01-15T17:11:08.315Z,6.9
2019-01-15T17:21:11.729Z,6.9
2019-01-15T17:31:15.190Z,6.8
2019-01-15T17:41:18.616Z,6.8
2019-01-15T17:51:22.054Z,6.7
2019-01-15T18:01:25.486Z,6.5
2019-01-15T18:11:28.905Z,6.4
2019-01-15T18:21:32.334Z,6.4
2019-01-15T18:31:35.776Z,6.4
2019-01-15T18:41:39.197Z,6
2019-01-15T18:51:42.604Z,5.8
2019-01-15T19:01:46.034Z,5.7
2019-01-15T19:11:49.449Z,5.7
2019-01-15T19:21:52.915Z,5.5
2019-01-15T19:31:56.372Z,5.3
2019-01-15T19:41:59.784Z,5.3
2019-01-15T19:52:03.198Z,5.4
2019-01-15T20:02:06.599Z,5.5
2019-01-15T20:12:10.003Z,5.3
2019-01-15T20:22:13.416Z,5
2019-01-15T20:32:16.819Z,4.8
2019-01-15T20:42:20.258Z,4.9
2019-01-15T20:52:23.675Z,4.8
2019-01-15T21:02:27.107Z,4.6
2019-01-15T21:12:30.507Z,4.5
2019-01-15T21:22:33.935Z,4.5
2019-01-15T21:32:37.334Z,4.4
2019-01-15T21:42:40.755Z,4.5
2019-01-15T21:52:47.753Z,4.6
2019-01-15T22:02:51.480Z,4.7
2019-01-15T22:12:54.883Z,4.5
2019-01-15T22:22:58.287Z,4.2
2019-01-15T22:33:01.724Z,4.1
2019-01-15T22:43:05.162Z,4.2
2019-01-15T22:53:08.565Z,4
2019-01-15T23:03:12.028Z,4.1
2019-01-15T23:13:15.463Z,4
2019-01-15T23:23:18.859Z,4
2019-01-15T23:33:22.274Z,3.9
2019-01-15T23:43:25.709Z,3.8
2019-01-15T23:53:29.089Z,3.8
